Terminal Aerodrome Forecast
Issued by NWS

Home | Current Version | Previous Version | Text Only | Print | Product List | Glossary On
Versions: 1 2 3 4 5 6 7 8 9 10 11 12 13 14 15 16
000
FTUS45 KREV 251100
TAFMMH
TAF
KMMH 251120Z 2512/2612 20015G28KT 5SM -SHSN SCT015 BKN040
     FM251400 28011KT 1SM -SN BKN010 OVC020
     FM252000 28015G26KT P6SM VCSH SCT030 BKN060
     FM260300 31010KT P6SM SCT050 BKN100=

USA.gov is the U.S. government's official web portal to all federal, state and local government web resources and services.